Time;durP1;ratioP1;P1;durP2;ratioP2;P2;SDS_P1;SDS_P2;PMS_P1;PMS_P2;Temp;Humidity;BMP_temperature;BMP_pressure;BME280_temperature;BME280_humidity;BME280_pressure;Samples;Min_cycle;Max_cycle;Signal;HPM_P1;HPM_P2
2021/06/12 00:00:02;;;;;;;1.00;0.95;;;15.90;99.90;;;;;;5069746;28;20175;-71
2021/06/12 00:02:27;;;;;;;0.22;0.22;;;15.90;99.90;;;;;;5068427;28;20168;-71
2021/06/12 00:04:53;;;;;;;0.20;0.20;;;15.90;99.90;;;;;;5069649;28;20176;-72
2021/06/12 00:07:19;;;;;;;0.57;0.57;;;15.80;99.90;;;;;;5068278;28;20177;-72
2021/06/12 00:09:44;;;;;;;1.38;0.55;;;15.80;99.90;;;;;;5069440;28;20196;-72
2021/06/12 00:12:11;;;;;;;1.45;1.17;;;15.90;99.90;;;;;;5069509;28;20165;-71
2021/06/12 00:14:37;;;;;;;0.73;0.73;;;15.80;99.90;;;;;;5069307;28;20258;-72
2021/06/12 00:17:03;;;;;;;1.42;0.43;;;15.70;99.90;;;;;;5068063;28;20192;-72
2021/06/12 00:19:29;;;;;;;1.50;0.63;;;15.70;99.90;;;;;;5063255;28;20205;-71
2021/06/12 00:21:55;;;;;;;2.10;0.47;;;15.90;99.90;;;;;;5048615;28;20200;-71
2021/06/12 00:24:20;;;;;;;1.08;1.08;;;15.80;99.90;;;;;;5061731;28;20196;-72
2021/06/12 00:26:46;;;;;;;0.73;0.73;;;15.80;99.90;;;;;;5047916;28;20177;-72
2021/06/12 00:29:12;;;;;;;0.35;0.35;;;15.80;99.90;;;;;;5068315;28;20205;-72
2021/06/12 00:31:38;;;;;;;0.63;0.63;;;15.80;99.90;;;;;;5068986;28;20180;-72
2021/06/12 00:34:04;;;;;;;1.88;1.77;;;15.80;99.90;;;;;;5068942;28;20195;-72
2021/06/12 00:36:30;;;;;;;1.13;1.13;;;15.90;99.90;;;;;;5067614;28;20207;-72
2021/06/12 00:38:55;;;;;;;0.75;0.75;;;16.00;99.90;;;;;;5068889;28;20203;-72
2021/06/12 00:41:21;;;;;;;0.20;0.20;;;16.00;99.90;;;;;;5077077;28;20250;-72
2021/06/12 00:43:47;;;;;;;0.63;0.63;;;15.80;99.90;;;;;;5088856;28;20179;-72
2021/06/12 00:46:14;;;;;;;0.20;0.20;;;15.80;99.90;;;;;;5070906;28;20178;-71
2021/06/12 00:48:42;;;;;;;0.35;0.35;;;15.80;99.90;;;;;;5088444;28;20226;-71
2021/06/12 00:51:09;;;;;;;1.38;0.57;;;15.70;99.90;;;;;;5088698;28;20202;-71
2021/06/12 00:53:40;;;;;;;0.10;0.10;;;15.70;99.90;;;;;;5088604;28;20200;-72
2021/06/12 00:56:18;;;;;;;0.10;0.10;;;15.80;99.90;;;;;;5088716;28;20156;-72
2021/06/12 00:58:45;;;;;;;0.80;0.80;;;15.80;99.90;;;;;;5088695;28;20190;-72
2021/06/12 01:01:16;;;;;;;0.52;0.52;;;15.80;99.90;;;;;;5070718;28;20526;-72
2021/06/12 01:03:42;;;;;;;0.57;0.30;;;15.60;99.90;;;;;;5088601;28;20519;-72
2021/06/12 01:06:13;;;;;;;0.20;0.20;;;15.60;99.90;;;;;;5070527;28;20172;-71
2021/06/12 01:08:41;;;;;;;1.05;0.95;;;15.60;99.90;;;;;;5088523;28;20533;-72
2021/06/12 01:11:08;;;;;;;0.65;0.65;;;15.50;99.90;;;;;;5088561;28;20163;-71
2021/06/12 01:13:51;;;;;;;0.17;0.17;;;15.40;99.90;;;;;;5088405;28;20196;-72
2021/06/12 01:16:16;;;;;;;2.65;0.65;;;15.30;99.90;;;;;;5088493;28;20160;-71
2021/06/12 01:18:45;;;;;;;0.22;0.22;;;15.30;99.90;;;;;;5070528;28;20267;-72
2021/06/12 01:21:14;;;;;;;0.82;0.75;;;15.20;99.90;;;;;;5070491;28;20172;-72
2021/06/12 01:23:54;;;;;;;0.80;0.80;;;15.20;99.90;;;;;;5088286;28;20528;-71
2021/06/12 01:26:47;;;;;;;0.88;0.85;;;15.10;99.90;;;;;;5088379;28;20163;-72
2021/06/12 01:29:50;;;;;;;0.73;0.63;;;15.20;99.90;;;;;;5088293;28;20570;-72
2021/06/12 01:32:18;;;;;;;1.08;1.08;;;15.20;99.90;;;;;;5084616;28;20181;-72
2021/06/12 01:34:46;;;;;;;0.50;0.50;;;15.30;99.90;;;;;;5066891;28;20259;-71
2021/06/12 01:37:14;;;;;;;1.83;1.08;;;15.30;99.90;;;;;;5068266;28;20169;-71
2021/06/12 01:39:41;;;;;;;0.77;0.77;;;15.30;99.90;;;;;;5050709;28;20192;-71
2021/06/12 01:42:11;;;;;;;0.40;0.38;;;15.30;99.90;;;;;;5068587;28;20231;-72
2021/06/12 01:44:39;;;;;;;0.45;0.45;;;15.20;99.90;;;;;;5050836;28;20219;-72
2021/06/12 01:47:07;;;;;;;0.68;0.68;;;15.20;99.90;;;;;;5050700;28;20181;-71
2021/06/12 01:49:34;;;;;;;0.30;0.30;;;15.20;99.90;;;;;;5067265;28;20203;-71
2021/06/12 01:52:01;;;;;;;0.25;0.25;;;15.10;99.90;;;;;;5057617;28;20203;-72
2021/06/12 01:54:29;;;;;;;0.38;0.38;;;15.10;99.90;;;;;;5089469;28;20198;-71
2021/06/12 01:56:55;;;;;;;1.08;1.08;;;15.20;99.90;;;;;;5088689;28;20217;-71
2021/06/12 01:59:22;;;;;;;0.50;0.50;;;15.30;99.90;;;;;;5070696;28;20178;-71
2021/06/12 02:01:52;;;;;;;0.60;0.60;;;15.40;99.90;;;;;;5090597;28;20218;-71
2021/06/12 02:04:19;;;;;;;0.52;0.52;;;15.50;99.90;;;;;;5092512;28;20634;-71
2021/06/12 02:06:46;;;;;;;0.25;0.25;;;15.60;99.90;;;;;;5074260;28;20226;-72
2021/06/12 02:09:15;;;;;;;0.98;0.85;;;15.50;99.90;;;;;;5092387;28;20168;-72
2021/06/12 02:11:42;;;;;;;1.02;1.02;;;15.70;99.90;;;;;;5074464;28;20175;-72
2021/06/12 02:14:09;;;;;;;0.43;0.43;;;15.80;99.90;;;;;;5092263;28;20199;-72
2021/06/12 02:16:37;;;;;;;18.20;0.70;;;15.80;99.90;;;;;;5074199;28;20278;-71
2021/06/12 02:19:05;;;;;;;0.25;0.25;;;15.90;99.90;;;;;;5074255;28;20180;-71
2021/06/12 02:21:34;;;;;;;0.30;0.30;;;16.00;99.90;;;;;;5092270;28;20175;-72
2021/06/12 02:24:01;;;;;;;0.65;0.65;;;16.00;99.90;;;;;;5074147;28;20180;-72
2021/06/12 02:26:30;;;;;;;0.50;0.47;;;16.10;99.90;;;;;;5092132;28;20195;-72
2021/06/12 02:28:58;;;;;;;0.70;0.70;;;16.00;99.90;;;;;;5091613;28;20202;-72
2021/06/12 02:31:31;;;;;;;1.48;1.38;;;16.00;99.90;;;;;;5092023;28;20161;-72
2021/06/12 02:33:57;;;;;;;0.45;0.45;;;15.80;99.90;;;;;;5073897;28;20191;-72
2021/06/12 02:36:23;;;;;;;0.95;0.95;;;15.70;99.90;;;;;;5091970;28;20590;-72
2021/06/12 02:38:49;;;;;;;0.45;0.45;;;15.50;99.90;;;;;;5073848;28;20255;-72
2021/06/12 02:41:16;;;;;;;0.85;0.73;;;15.50;99.90;;;;;;5073657;28;20227;-72
2021/06/12 02:43:43;;;;;;;0.73;0.73;;;15.50;99.90;;;;;;5091599;28;20171;-72
2021/06/12 02:46:16;;;;;;;0.50;0.38;;;15.50;99.90;;;;;;5091739;28;20156;-72
2021/06/12 02:48:45;;;;;;;0.28;0.28;;;15.50;99.90;;;;;;5073639;28;20263;-72
2021/06/12 02:51:11;;;;;;;0.20;0.20;;;15.50;99.90;;;;;;5091737;28;20178;-71
2021/06/12 02:53:41;;;;;;;3.50;0.43;;;15.50;99.90;;;;;;5073596;28;20199;-71
2021/06/12 02:56:08;;;;;;;0.20;0.20;;;15.50;99.90;;;;;;5091454;28;20247;-71
2021/06/12 02:58:37;;;;;;;1.17;1.08;;;15.60;99.90;;;;;;5091426;28;20251;-71
2021/06/12 03:01:04;;;;;;;0.77;0.57;;;15.60;99.90;;;;;;5091418;28;20152;-71
2021/06/12 03:03:34;;;;;;;1.00;1.00;;;15.60;99.90;;;;;;5091276;28;20227;-71
2021/06/12 03:06:01;;;;;;;0.28;0.20;;;15.50;99.90;;;;;;5073320;28;20168;-71
2021/06/12 03:08:35;;;;;;;0.60;0.60;;;15.50;99.90;;;;;;5073183;28;20265;-71
2021/06/12 03:11:03;;;;;;;0.50;0.50;;;15.30;99.90;;;;;;5073361;28;20175;-72
2021/06/12 03:13:30;;;;;;;0.45;0.45;;;15.20;99.90;;;;;;5072958;28;20205;-71
2021/06/12 03:16:00;;;;;;;0.80;0.40;;;15.10;99.90;;;;;;5091086;28;20152;-71
2021/06/12 03:18:27;;;;;;;1.35;1.13;;;15.10;99.90;;;;;;5091013;28;20325;-71
2021/06/12 03:20:57;;;;;;;1.27;1.17;;;15.10;99.90;;;;;;5091151;28;20165;-72
2021/06/12 03:23:26;;;;;;;1.70;1.20;;;15.00;99.90;;;;;;5091036;28;20156;-72
2021/06/12 03:25:53;;;;;;;1.00;1.00;;;14.90;99.90;;;;;;5072973;28;20179;-72
2021/06/12 03:28:20;;;;;;;0.20;0.20;;;15.10;99.90;;;;;;5090969;28;20191;-72
2021/06/12 03:30:47;;;;;;;0.77;0.77;;;14.90;99.90;;;;;;5090834;28;20155;-72
2021/06/12 03:33:14;;;;;;;0.68;0.68;;;15.00;99.90;;;;;;5090874;28;20152;-72
2021/06/12 03:35:41;;;;;;;0.20;0.20;;;15.10;99.90;;;;;;5090894;28;20210;-72
2021/06/12 03:38:08;;;;;;;0.95;0.95;;;15.10;99.90;;;;;;5090681;28;20217;-71
2021/06/12 03:40:35;;;;;;;0.32;0.32;;;15.10;99.90;;;;;;5072489;28;20167;-71
2021/06/12 03:43:04;;;;;;;0.32;0.32;;;15.10;99.90;;;;;;5090866;28;20152;-72
2021/06/12 03:45:31;;;;;;;0.57;0.57;;;15.20;99.90;;;;;;5090679;28;20182;-71
2021/06/12 03:48:02;;;;;;;0.45;0.38;;;15.20;99.90;;;;;;5090511;28;20160;-72
2021/06/12 03:50:29;;;;;;;0.20;0.20;;;15.20;99.90;;;;;;5090549;28;20223;-72
2021/06/12 03:52:55;;;;;;;0.95;0.95;;;15.20;99.90;;;;;;5072663;28;20592;-71
2021/06/12 03:55:22;;;;;;;0.88;0.88;;;15.50;99.90;;;;;;5090350;28;20196;-71
2021/06/12 03:57:49;;;;;;;0.65;0.65;;;15.80;99.90;;;;;;5090350;28;20156;-72
2021/06/12 04:00:17;;;;;;;0.40;0.40;;;15.80;99.90;;;;;;5090340;28;20202;-72
2021/06/12 04:02:43;;;;;;;0.85;0.50;;;15.70;99.90;;;;;;5090268;28;20226;-73
2021/06/12 04:05:09;;;;;;;0.52;0.52;;;15.70;99.90;;;;;;5090257;28;20184;-72
2021/06/12 04:07:39;;;;;;;0.60;0.60;;;15.80;99.90;;;;;;5090166;28;20178;-72
2021/06/12 04:10:08;;;;;;;0.45;0.45;;;15.80;99.90;;;;;;5072169;28;20191;-72
2021/06/12 04:12:33;;;;;;;0.85;0.85;;;15.80;99.90;;;;;;5072168;28;20172;-72
2021/06/12 04:14:59;;;;;;;0.90;0.90;;;15.80;99.90;;;;;;5071924;28;20202;-72
2021/06/12 04:17:25;;;;;;;1.10;0.93;;;15.80;99.90;;;;;;5090027;28;20220;-71
2021/06/12 04:19:51;;;;;;;0.45;0.45;;;15.90;99.90;;;;;;5089869;28;20203;-71
2021/06/12 04:22:17;;;;;;;0.43;0.43;;;15.90;99.90;;;;;;5071785;28;20164;-71
2021/06/12 04:24:43;;;;;;;0.52;0.40;;;15.90;99.90;;;;;;5088756;28;20163;-71
2021/06/12 04:27:09;;;;;;;0.60;0.60;;;16.00;99.90;;;;;;5089201;28;20219;-72
2021/06/12 04:29:35;;;;;;;0.52;0.52;;;16.20;99.90;;;;;;5089131;28;20203;-71
2021/06/12 04:32:02;;;;;;;1.25;0.65;;;16.50;99.90;;;;;;5089105;28;20168;-72
2021/06/12 04:34:28;;;;;;;1.45;1.13;;;16.80;99.90;;;;;;5088919;28;20243;-72
2021/06/12 04:36:54;;;;;;;0.40;0.40;;;17.00;99.90;;;;;;5071119;28;20231;-71
2021/06/12 04:39:20;;;;;;;0.15;0.15;;;17.10;99.90;;;;;;5088866;28;20191;-72
2021/06/12 04:41:46;;;;;;;0.68;0.68;;;17.30;99.90;;;;;;5070894;28;20227;-72
2021/06/12 04:44:12;;;;;;;2.70;0.70;;;17.60;99.90;;;;;;5071087;28;20167;-72
2021/06/12 04:46:39;;;;;;;0.40;0.40;;;17.80;99.90;;;;;;5071843;28;20161;-72
2021/06/12 04:49:06;;;;;;;0.85;0.85;;;18.00;99.90;;;;;;5089617;28;20218;-72
2021/06/12 04:51:33;;;;;;;0.35;0.35;;;18.10;99.90;;;;;;5071781;28;20168;-71
2021/06/12 04:53:58;;;;;;;0.88;0.88;;;18.10;99.90;;;;;;5089523;28;20183;-72
2021/06/12 04:56:25;;;;;;;1.20;1.10;;;18.50;99.90;;;;;;5089596;28;20156;-72
2021/06/12 04:58:51;;;;;;;0.20;0.20;;;18.80;99.90;;;;;;5089412;28;20187;-72
2021/06/12 05:01:17;;;;;;;4.57;0.98;;;18.60;99.90;;;;;;5071511;28;20171;-72
2021/06/12 05:03:43;;;;;;;1.10;0.47;;;19.20;99.90;;;;;;5071493;28;20192;-72
2021/06/12 05:06:09;;;;;;;0.10;0.10;;;20.30;99.90;;;;;;5071284;28;20175;-72
2021/06/12 05:08:34;;;;;;;2.80;1.67;;;21.00;99.90;;;;;;5089291;28;20192;-72
2021/06/12 05:11:00;;;;;;;2.28;1.55;;;21.60;99.90;;;;;;5089365;28;20174;-72
2021/06/12 05:13:26;;;;;;;1.23;0.88;;;22.40;99.90;;;;;;5071016;28;20175;-71
2021/06/12 05:15:52;;;;;;;0.65;0.65;;;23.30;99.90;;;;;;5089256;28;20178;-72
2021/06/12 05:18:21;;;;;;;0.60;0.60;;;23.80;99.90;;;;;;5089322;28;20188;-72
2021/06/12 05:20:47;;;;;;;0.70;0.70;;;24.00;99.90;;;;;;5089020;28;20158;-72
2021/06/12 05:23:12;;;;;;;0.85;0.85;;;23.90;99.90;;;;;;5071188;28;20178;-71
2021/06/12 05:25:38;;;;;;;1.02;1.02;;;24.40;99.90;;;;;;5089284;28;20148;-71
2021/06/12 05:28:05;;;;;;;0.73;0.73;;;25.10;99.90;;;;;;5089069;28;20187;-72
2021/06/12 05:30:31;;;;;;;0.22;0.22;;;25.60;99.90;;;;;;5071040;28;20179;-72
2021/06/12 05:32:56;;;;;;;0.57;0.43;;;26.00;99.90;;;;;;5089177;28;20148;-71
2021/06/12 05:35:23;;;;;;;0.63;0.63;;;26.10;99.90;;;;;;5088961;28;20193;-72
2021/06/12 05:37:49;;;;;;;0.57;0.57;;;26.40;99.90;;;;;;5092839;28;20151;-71
2021/06/12 05:40:15;;;;;;;2.10;0.85;;;26.70;99.90;;;;;;5092762;28;20164;-72
2021/06/12 05:42:41;;;;;;;0.52;0.50;;;26.80;99.90;;;;;;5092971;28;20221;-71
2021/06/12 05:45:09;;;;;;;0.73;0.73;;;26.40;99.90;;;;;;5092931;28;20163;-72
2021/06/12 05:47:35;;;;;;;7.22;0.60;;;26.00;99.90;;;;;;5092971;28;20213;-72
2021/06/12 05:50:01;;;;;;;1.00;0.50;;;25.40;99.90;;;;;;5093027;28;20163;-72
2021/06/12 05:52:27;;;;;;;20.92;1.35;;;25.40;99.90;;;;;;5092818;28;20159;-71
2021/06/12 05:54:53;;;;;;;0.75;0.75;;;26.00;99.90;;;;;;5092893;28;20187;-71
2021/06/12 05:57:19;;;;;;;0.30;0.30;;;26.70;99.90;;;;;;5074810;28;20191;-72
2021/06/12 05:59:45;;;;;;;0.17;0.17;;;27.50;99.90;;;;;;5092722;28;20166;-72
2021/06/12 06:02:11;;;;;;;3.88;0.93;;;27.40;99.90;;;;;;5092168;28;20183;-72
2021/06/12 06:04:36;;;;;;;2.88;0.73;;;28.00;99.90;;;;;;5092040;28;20242;-71
2021/06/12 06:07:02;;;;;;;1.50;0.60;;;28.30;99.90;;;;;;5073798;28;20213;-72
2021/06/12 06:09:28;;;;;;;0.10;0.10;;;28.60;99.90;;;;;;5091939;28;20168;-71
2021/06/12 06:11:54;;;;;;;0.10;0.10;;;28.60;99.90;;;;;;5092279;28;20179;-71
2021/06/12 06:14:20;;;;;;;0.50;0.50;;;28.50;99.90;;;;;;5092207;28;20265;-71
2021/06/12 06:16:46;;;;;;;0.22;0.17;;;29.40;99.90;;;;;;5092446;28;20191;-72
2021/06/12 06:19:12;;;;;;;0.80;0.43;;;29.40;99.90;;;;;;5092436;28;20171;-72
2021/06/12 06:21:37;;;;;;;0.35;0.35;;;28.70;99.90;;;;;;5091712;28;20176;-72
2021/06/12 06:24:05;;;;;;;0.88;0.73;;;27.80;99.90;;;;;;5091625;28;20163;-72
2021/06/12 06:26:31;;;;;;;0.30;0.30;;;27.20;99.90;;;;;;5071389;28;20700;-72
2021/06/12 06:28:57;;;;;;;1.10;0.90;;;27.30;99.90;;;;;;5080020;28;20195;-71
2021/06/12 06:31:22;;;;;;;4.78;0.80;;;27.70;99.90;;;;;;5090727;28;20555;-72
2021/06/12 06:33:49;;;;;;;0.63;0.63;;;27.30;99.90;;;;;;5091677;28;20207;-72
2021/06/12 06:36:14;;;;;;;0.75;0.75;;;27.30;99.90;;;;;;5091064;28;20225;-72
2021/06/12 06:38:41;;;;;;;0.65;0.65;;;27.40;99.90;;;;;;5091377;28;20175;-72
2021/06/12 06:41:07;;;;;;;2.47;0.47;;;29.30;99.90;;;;;;5104407;28;20216;-72
2021/06/12 06:43:33;;;;;;;0.52;0.38;;;30.30;99.90;;;;;;5106783;28;20235;-72
2021/06/12 06:45:59;;;;;;;0.30;0.30;;;30.00;99.90;;;;;;5091846;28;20195;-72
2021/06/12 06:48:25;;;;;;;0.52;0.52;;;29.20;99.90;;;;;;5090405;28;20171;-72
2021/06/12 06:50:51;;;;;;;0.20;0.20;;;30.00;99.90;;;;;;5110162;28;20205;-72
2021/06/12 06:53:17;;;;;;;0.45;0.45;;;30.30;99.90;;;;;;5112140;28;20563;-71
2021/06/12 06:55:43;;;;;;;1.02;0.95;;;29.60;99.90;;;;;;5111854;28;20270;-72
2021/06/12 06:58:09;;;;;;;0.80;0.63;;;28.80;99.90;;;;;;5093869;28;20167;-72
2021/06/12 07:00:35;;;;;;;0.93;0.80;;;29.40;99.90;;;;;;5088476;28;20186;-72
2021/06/12 07:03:01;;;;;;;0.57;0.45;;;31.00;99.90;;;;;;5091558;28;20155;-73
2021/06/12 07:05:27;;;;;;;1.13;0.75;;;32.20;99.90;;;;;;5091424;28;20155;-71
2021/06/12 07:07:53;;;;;;;0.38;0.38;;;32.70;99.90;;;;;;5073401;28;20207;-72
2021/06/12 07:10:20;;;;;;;0.70;0.70;;;32.10;99.90;;;;;;5090426;28;20240;-72
2021/06/12 07:12:45;;;;;;;1.05;1.05;;;32.00;99.90;;;;;;5090851;28;20159;-72
2021/06/12 07:15:12;;;;;;;0.50;0.50;;;31.90;99.90;;;;;;5091044;28;20191;-72
2021/06/12 07:17:38;;;;;;;0.35;0.35;;;31.80;99.90;;;;;;5091297;28;20213;-72
2021/06/12 07:20:09;;;;;;;0.45;0.45;;;32.60;99.90;;;;;;5091329;28;20151;-71
2021/06/12 07:22:34;;;;;;;0.50;0.50;;;32.70;99.90;;;;;;5090919;28;20218;-72
2021/06/12 07:25:00;;;;;;;0.85;0.60;;;32.70;99.90;;;;;;5072800;28;20172;-73
2021/06/12 07:27:27;;;;;;;0.70;0.50;;;33.00;99.90;;;;;;5080742;28;20210;-72
2021/06/12 07:29:52;;;;;;;0.60;0.60;;;33.40;99.90;;;;;;5070940;28;20156;-72
2021/06/12 07:32:18;;;;;;;0.50;0.22;;;33.50;99.90;;;;;;5070725;28;20609;-72
2021/06/12 07:34:44;;;;;;;0.98;0.80;;;32.50;99.90;;;;;;5075736;28;20198;-72
2021/06/12 07:37:10;;;;;;;0.75;0.63;;;30.90;99.90;;;;;;5090793;28;20198;-72
2021/06/12 07:39:36;;;;;;;0.40;0.40;;;30.70;99.90;;;;;;5090690;28;20156;-72
2021/06/12 07:42:02;;;;;;;0.22;0.22;;;30.60;99.90;;;;;;5090439;28;20218;-71
2021/06/12 07:44:28;;;;;;;2.05;1.30;;;31.50;99.90;;;;;;5072557;28;20170;-72
2021/06/12 07:46:54;;;;;;;0.80;0.80;;;33.20;99.90;;;;;;5090594;28;20191;-72
2021/06/12 07:49:19;;;;;;;0.70;0.47;;;34.00;99.90;;;;;;5072305;28;20174;-71
2021/06/12 07:51:45;;;;;;;0.73;0.60;;;33.50;99.90;;;;;;5072151;28;20174;-71
2021/06/12 07:54:11;;;;;;;0.50;0.50;;;34.00;99.90;;;;;;5090306;28;20585;-71
2021/06/12 07:56:37;;;;;;;1.48;1.13;;;34.40;99.90;;;;;;5090167;28;20193;-71
2021/06/12 07:59:03;;;;;;;1.40;0.98;;;34.50;99.90;;;;;;5089406;28;20225;-71
2021/06/12 08:01:29;;;;;;;1.02;0.65;;;34.80;99.90;;;;;;5090150;28;20174;-71
2021/06/12 08:03:55;;;;;;;0.22;0.22;;;35.10;99.90;;;;;;5072089;28;20168;-71
2021/06/12 08:06:22;;;;;;;2.60;0.55;;;36.00;99.90;;;;;;5090042;28;20228;-71
2021/06/12 08:08:48;;;;;;;0.60;0.60;;;34.90;99.90;;;;;;5072022;28;20172;-71
2021/06/12 08:11:14;;;;;;;1.40;1.30;;;33.50;99.90;;;;;;5090760;28;20317;-71
2021/06/12 08:13:40;;;;;;;1.05;0.75;;;35.80;99.90;;;;;;5089802;28;20223;-71
2021/06/12 08:16:06;;;;;;;2.95;0.75;;;35.90;99.90;;;;;;5099787;28;20194;-72
2021/06/12 08:18:33;;;;;;;0.82;0.70;;;35.90;99.90;;;;;;5091954;28;20220;-72
2021/06/12 08:21:00;;;;;;;0.65;0.65;;;36.00;99.90;;;;;;5109556;28;20427;-72
2021/06/12 08:23:25;;;;;;;0.93;0.88;;;34.30;99.80;;;;;;5106275;28;20234;-72
2021/06/12 08:25:51;;;;;;;0.35;0.35;;;33.00;99.90;;;;;;5071737;28;20223;-72
2021/06/12 08:28:17;;;;;;;0.47;0.40;;;33.00;99.90;;;;;;5099222;28;20164;-72
2021/06/12 08:30:43;;;;;;;0.52;0.52;;;31.30;99.90;;;;;;5089070;28;20159;-72
2021/06/12 08:33:10;;;;;;;0.70;0.70;;;31.00;99.90;;;;;;5088816;28;20168;-72
2021/06/12 08:35:38;;;;;;;1.98;1.30;;;29.40;99.90;;;;;;5088675;28;20195;-72
2021/06/12 08:38:05;;;;;;;0.80;0.80;;;28.80;99.90;;;;;;5088772;28;20152;-71
2021/06/12 08:40:31;;;;;;;0.75;0.75;;;28.40;99.90;;;;;;5088580;28;20246;-71
2021/06/12 08:42:58;;;;;;;1.10;1.00;;;27.90;99.90;;;;;;5088754;28;20164;-72
2021/06/12 08:45:28;;;;;;;1.10;0.63;;;27.90;99.90;;;;;;5088983;28;20163;-71
2021/06/12 08:47:59;;;;;;;7.20;1.38;;;27.90;99.90;;;;;;5090303;28;20218;-71
2021/06/12 08:50:25;;;;;;;0.63;0.63;;;26.70;99.90;;;;;;5108981;28;20163;-71
2021/06/12 08:52:53;;;;;;;5.70;0.63;;;26.00;99.90;;;;;;5108880;28;20189;-71
2021/06/12 08:55:20;;;;;;;0.40;0.40;;;26.00;99.90;;;;;;5108824;28;20215;-71
2021/06/12 08:57:46;;;;;;;1.15;0.50;;;25.80;99.90;;;;;;5108641;28;20186;-71
2021/06/12 09:00:13;;;;;;;1.88;0.75;;;25.70;99.90;;;;;;5089341;28;20405;-71
2021/06/12 09:03:04;;;;;;;0.70;0.60;;;25.60;99.90;;;;;;5090403;28;20209;-71
2021/06/12 09:05:56;;;;;;;0.55;0.55;;;25.50;99.90;;;;;;5108660;28;20185;-70
2021/06/12 09:08:21;;;;;;;1.38;1.02;;;25.60;99.90;;;;;;5090570;28;20183;-71
2021/06/12 09:10:51;;;;;;;7.93;0.70;;;26.00;99.90;;;;;;5107587;28;20227;-71
2021/06/12 09:13:33;;;;;;;0.80;0.70;;;26.20;99.90;;;;;;5108006;28;20212;-71
2021/06/12 09:16:01;;;;;;;0.68;0.50;;;26.20;99.90;;;;;;5107960;28;20162;-70
2021/06/12 09:18:41;;;;;;;0.55;0.55;;;26.10;99.90;;;;;;5104924;28;20194;-70
2021/06/12 09:21:09;;;;;;;10.85;1.17;;;25.90;99.90;;;;;;5105477;28;20166;-71
2021/06/12 09:23:40;;;;;;;2.05;1.25;;;25.80;99.90;;;;;;5089704;28;20212;-71
2021/06/12 09:26:09;;;;;;;0.80;0.80;;;26.00;99.90;;;;;;5085087;28;20636;-71
2021/06/12 09:28:55;;;;;;;0.60;0.60;;;25.80;99.90;;;;;;5070578;28;20172;-71
2021/06/12 09:31:26;;;;;;;1.00;0.82;;;25.50;99.90;;;;;;5087107;28;20171;-71
2021/06/12 09:33:55;;;;;;;0.73;0.55;;;25.60;99.90;;;;;;5086819;28;20221;-71
2021/06/12 09:36:42;;;;;;;0.40;0.40;;;25.90;99.90;;;;;;5085655;28;20186;-71
2021/06/12 09:39:13;;;;;;;0.98;0.95;;;26.20;99.90;;;;;;5067001;28;20174;-71
2021/06/12 09:41:47;;;;;;;3.20;1.83;;;26.20;99.90;;;;;;5068943;28;20223;-71
2021/06/12 09:44:49;;;;;;;0.63;0.63;;;26.30;99.90;;;;;;5087155;28;20199;-71
2021/06/12 09:47:17;;;;;;;1.23;0.80;;;26.90;99.90;;;;;;5024606;28;20195;-68
2021/06/12 09:49:43;;;;;;;1.45;1.35;;;26.80;99.90;;;;;;5000544;28;20170;-68
2021/06/12 09:52:11;;;;;;;1.98;1.50;;;26.70;99.90;;;;;;5024731;28;20943;-69
2021/06/12 09:54:46;;;;;;;4.38;1.55;;;26.40;99.90;;;;;;5024945;28;20185;-69
2021/06/12 09:57:13;;;;;;;7.05;1.40;;;26.20;99.90;;;;;;5007392;28;20208;-69
2021/06/12 09:59:41;;;;;;;1.55;1.33;;;26.30;99.90;;;;;;5025107;28;20176;-69
2021/06/12 10:02:07;;;;;;;1.15;1.10;;;26.20;99.90;;;;;;5025113;28;20248;-70
2021/06/12 10:04:33;;;;;;;0.45;0.45;;;26.10;99.90;;;;;;5025215;28;20197;-69
2021/06/12 10:06:59;;;;;;;0.50;0.50;;;25.90;99.90;;;;;;5025255;28;20220;-69
2021/06/12 10:09:26;;;;;;;1.20;0.60;;;25.70;99.90;;;;;;5025531;28;20216;-72
2021/06/12 10:11:54;;;;;;;1.10;1.00;;;26.00;99.90;;;;;;5007698;28;20167;-72
2021/06/12 10:14:20;;;;;;;0.32;0.32;;;25.80;99.90;;;;;;5025060;28;20253;-72
2021/06/12 10:16:47;;;;;;;0.50;0.50;;;25.70;99.90;;;;;;5025140;28;20205;-72
2021/06/12 10:19:18;;;;;;;0.95;0.88;;;26.10;99.90;;;;;;5025414;28;20169;-71
2021/06/12 10:21:45;;;;;;;1.60;1.50;;;26.10;99.90;;;;;;5023089;28;20328;-72
2021/06/12 10:24:11;;;;;;;0.88;0.50;;;26.00;99.90;;;;;;5076999;28;20180;-72
2021/06/12 10:26:37;;;;;;;0.47;0.47;;;25.70;99.90;;;;;;5090842;28;20201;-72
2021/06/12 10:29:04;;;;;;;0.73;0.65;;;25.60;99.90;;;;;;5072791;28;20179;-72
2021/06/12 10:31:36;;;;;;;0.55;0.55;;;26.10;99.90;;;;;;5072864;28;20174;-72
2021/06/12 10:34:02;;;;;;;0.63;0.63;;;26.40;99.90;;;;;;5088406;28;20219;-72
2021/06/12 10:36:31;;;;;;;0.35;0.35;;;26.20;99.90;;;;;;5073919;28;20187;-72
2021/06/12 10:38:58;;;;;;;0.95;0.60;;;26.50;99.90;;;;;;5092089;28;20300;-72
2021/06/12 10:41:33;;;;;;;0.50;0.50;;;26.10;99.90;;;;;;5073662;28;20222;-72
2021/06/12 10:44:03;;;;;;;0.55;0.55;;;26.00;99.90;;;;;;5073834;28;20624;-72
2021/06/12 10:46:31;;;;;;;1.08;0.98;;;25.40;99.90;;;;;;5091736;28;20175;-72
2021/06/12 10:48:59;;;;;;;0.85;0.73;;;25.30;99.90;;;;;;5073852;28;20231;-72
2021/06/12 10:51:25;;;;;;;0.40;0.40;;;25.40;99.90;;;;;;5091607;28;20166;-72
2021/06/12 10:54:22;;;;;;;0.68;0.65;;;24.90;99.90;;;;;;5091713;28;20191;-72
2021/06/12 10:56:53;;;;;;;1.10;0.85;;;25.10;99.90;;;;;;5061901;28;20320;-70
2021/06/12 10:59:42;;;;;;;0.95;0.82;;;25.10;99.90;;;;;;5091455;28;20208;-70
2021/06/12 11:02:30;;;;;;;0.45;0.45;;;25.00;99.90;;;;;;5091629;28;20168;-70
2021/06/12 11:05:04;;;;;;;0.28;0.20;;;25.40;99.90;;;;;;5073520;28;20175;-70
2021/06/12 11:07:45;;;;;;;1.63;1.23;;;25.60;99.90;;;;;;5073449;28;20206;-69
2021/06/12 11:10:11;;;;;;;0.77;0.73;;;25.80;99.90;;;;;;5091482;28;20163;-70
2021/06/12 11:12:49;;;;;;;0.47;0.47;;;25.80;99.90;;;;;;5091430;28;20166;-70
2021/06/12 11:15:21;;;;;;;0.40;0.20;;;26.00;99.90;;;;;;5073330;28;20197;-70
2021/06/12 11:18:17;;;;;;;1.70;1.58;;;26.20;99.90;;;;;;5091182;28;20256;-70
2021/06/12 11:20:47;;;;;;;0.75;0.75;;;26.70;99.90;;;;;;5073347;28;20623;-70
2021/06/12 11:23:19;;;;;;;0.55;0.32;;;27.50;99.90;;;;;;5091119;28;20148;-69
2021/06/12 11:25:55;;;;;;;0.52;0.47;;;28.80;99.90;;;;;;5073072;28;20545;-70
2021/06/12 11:28:23;;;;;;;0.60;0.60;;;28.80;99.90;;;;;;5096345;28;20200;-68
2021/06/12 11:30:52;;;;;;;1.85;1.10;;;28.60;99.90;;;;;;5110935;28;20155;-71
2021/06/12 11:33:18;;;;;;;0.55;0.55;;;28.90;99.90;;;;;;5109886;28;20184;-70
2021/06/12 11:35:50;;;;;;;0.75;0.75;;;29.60;99.90;;;;;;5097603;28;20199;-69
2021/06/12 11:38:32;;;;;;;1.23;1.13;;;30.70;99.90;;;;;;5090927;28;20199;-70
2021/06/12 11:41:16;;;;;;;0.55;0.55;;;30.50;99.90;;;;;;5090587;28;20332;-70
2021/06/12 11:43:50;;;;;;;0.30;0.30;;;28.60;99.90;;;;;;5090993;28;20155;-70
2021/06/12 11:46:30;;;;;;;0.98;0.98;;;28.60;99.90;;;;;;5072796;28;20631;-70
2021/06/12 11:48:57;;;;;;;0.75;0.52;;;28.90;99.90;;;;;;5090702;28;20191;-70
2021/06/12 11:51:30;;;;;;;1.05;0.80;;;29.60;99.90;;;;;;5090812;28;20167;-70
2021/06/12 11:54:09;;;;;;;1.08;0.82;;;29.40;99.90;;;;;;5090679;28;20183;-70
2021/06/12 11:56:43;;;;;;;0.70;0.55;;;30.20;99.90;;;;;;5072454;28;20238;-70
2021/06/12 11:59:10;;;;;;;0.65;0.65;;;29.70;99.90;;;;;;5090563;28;20152;-70
2021/06/12 12:01:58;;;;;;;0.50;0.50;;;29.70;99.90;;;;;;5090427;28;20232;-70
2021/06/12 12:04:31;;;;;;;0.75;0.60;;;29.90;99.90;;;;;;5072050;28;20213;-70
2021/06/12 12:06:57;;;;;;;1.00;0.90;;;30.10;99.90;;;;;;5090464;28;20159;-70
2021/06/12 12:09:23;;;;;;;1.10;0.70;;;31.40;99.90;;;;;;5090368;28;20226;-70
2021/06/12 12:11:52;;;;;;;0.93;0.65;;;30.90;99.90;;;;;;5090339;28;20160;-70
2021/06/12 12:14:25;;;;;;;0.82;0.77;;;31.20;99.90;;;;;;5090229;28;20187;-70
2021/06/12 12:16:50;;;;;;;0.80;0.80;;;30.30;99.90;;;;;;5090195;28;20180;-70
2021/06/12 12:19:18;;;;;;;0.82;0.82;;;30.30;99.90;;;;;;5090194;28;20167;-70
2021/06/12 12:21:43;;;;;;;0.88;0.57;;;30.10;99.90;;;;;;5090110;28;20170;-70
2021/06/12 12:24:12;;;;;;;0.95;0.88;;;30.40;99.90;;;;;;5090057;28;20219;-70
2021/06/12 12:26:39;;;;;;;0.68;0.68;;;29.70;99.90;;;;;;5090154;28;20164;-70
2021/06/12 12:29:15;;;;;;;1.58;1.33;;;28.00;99.90;;;;;;5101102;28;20198;-69
2021/06/12 12:31:48;;;;;;;0.52;0.52;;;28.20;99.90;;;;;;5091987;28;20249;-70
2021/06/12 12:34:15;;;;;;;1.52;1.20;;;28.20;99.90;;;;;;5109066;28;20208;-70
2021/06/12 12:36:52;;;;;;;0.77;0.77;;;28.30;99.90;;;;;;5089988;28;20155;-70
2021/06/12 12:39:19;;;;;;;1.88;1.27;;;28.30;99.90;;;;;;5089649;28;20604;-69
2021/06/12 12:41:59;;;;;;;0.77;0.77;;;28.70;99.90;;;;;;5089797;28;20210;-70
2021/06/12 12:44:28;;;;;;;0.63;0.63;;;28.70;99.90;;;;;;5071260;28;20184;-70
2021/06/12 12:46:55;;;;;;;1.52;0.95;;;28.30;99.90;;;;;;5089288;28;20155;-69
2021/06/12 12:49:22;;;;;;;0.95;0.93;;;28.40;99.90;;;;;;5089724;28;20151;-70
2021/06/12 12:51:59;;;;;;;1.17;0.60;;;28.60;99.90;;;;;;5089660;28;20242;-69